Time;durP1;ratioP1;P1;durP2;ratioP2;P2;SDS_P1;SDS_P2;PMS_P1;PMS_P2;Temp;Humidity;BMP_temperature;BMP_pressure;BME280_temperature;BME280_humidity;BME280_pressure;Samples;Min_cycle;Max_cycle;Signal;HPM_P1;HPM_P2
2023/10/11 00:00:35;;;;;;;12.68;5.32;;;16.00;99.90;;;;;;5032446;28;20041;-84
2023/10/11 00:03:32;;;;;;;12.43;5.57;;;16.00;99.90;;;;;;5039671;28;20407;-84
2023/10/11 00:05:59;;;;;;;13.82;5.80;;;16.00;99.90;;;;;;5014435;28;20510;-84
2023/10/11 00:08:26;;;;;;;11.18;5.38;;;15.90;99.90;;;;;;5024827;28;20127;-84
2023/10/11 00:10:58;;;;;;;11.18;5.70;;;16.00;99.90;;;;;;5033326;28;20078;-84
2023/10/11 00:13:32;;;;;;;17.30;5.60;;;16.00;99.90;;;;;;5026191;28;20113;-84
2023/10/11 00:16:07;;;;;;;15.63;6.33;;;15.90;99.90;;;;;;5022505;28;20038;-84
2023/10/11 00:18:43;;;;;;;18.83;6.55;;;15.90;99.90;;;;;;5028338;28;20069;-84
2023/10/11 00:21:11;;;;;;;12.52;5.90;;;16.00;99.90;;;;;;5030034;28;20045;-84
2023/10/11 00:23:41;;;;;;;17.60;6.50;;;15.90;99.90;;;;;;5029610;28;20128;-84
2023/10/11 00:26:07;;;;;;;14.20;6.03;;;15.90;99.90;;;;;;5029694;28;20046;-84
2023/10/11 00:28:37;;;;;;;13.32;5.57;;;15.90;99.90;;;;;;5029692;28;20790;-84
2023/10/11 00:31:11;;;;;;;14.48;6.90;;;15.90;99.90;;;;;;5029433;28;20048;-84
2023/10/11 00:33:38;;;;;;;16.65;6.15;;;15.80;99.90;;;;;;5029585;28;20038;-84
2023/10/11 00:36:06;;;;;;;12.85;6.40;;;15.80;99.90;;;;;;5049676;28;20034;-84
2023/10/11 00:38:42;;;;;;;14.27;6.22;;;15.80;99.90;;;;;;5033394;28;20042;-84
2023/10/11 00:41:18;;;;;;;17.85;6.60;;;15.80;99.90;;;;;;5038120;28;20393;-84
2023/10/11 00:43:53;;;;;;;20.05;7.47;;;15.80;99.90;;;;;;5033256;28;20049;-84
2023/10/11 00:46:22;;;;;;;14.30;6.95;;;15.80;99.90;;;;;;5048316;28;20087;-84
2023/10/11 00:49:00;;;;;;;16.40;7.18;;;15.80;99.90;;;;;;5033155;28;20057;-83
2023/10/11 00:51:31;;;;;;;16.02;7.25;;;15.80;99.90;;;;;;5020496;28;20125;-84
2023/10/11 00:54:04;;;;;;;19.33;7.15;;;15.70;99.90;;;;;;5032187;28;20042;-84
2023/10/11 00:56:32;;;;;;;17.75;7.38;;;15.80;99.90;;;;;;5013422;28;20041;-84
2023/10/11 00:59:00;;;;;;;20.25;7.65;;;15.70;99.90;;;;;;5026201;28;20049;-84
2023/10/11 01:01:26;;;;;;;19.67;7.50;;;15.80;99.90;;;;;;5013564;28;20034;-84
2023/10/11 01:03:54;;;;;;;19.58;7.63;;;15.90;99.90;;;;;;5018982;28;20044;-84
2023/10/11 01:06:25;;;;;;;19.38;7.88;;;15.70;99.90;;;;;;5032734;28;20046;-84
2023/10/11 01:08:53;;;;;;;17.90;7.60;;;15.70;99.90;;;;;;5033155;28;20045;-84
2023/10/11 01:11:19;;;;;;;25.40;7.30;;;15.70;99.90;;;;;;5020114;28;20096;-84
2023/10/11 01:13:52;;;;;;;13.80;7.60;;;15.70;99.90;;;;;;5019122;28;20042;-84
2023/10/11 01:16:24;;;;;;;19.02;7.72;;;15.70;99.90;;;;;;5038631;28;20045;-84
2023/10/11 01:18:51;;;;;;;20.95;8.20;;;15.80;99.90;;;;;;5036467;28;20084;-84
2023/10/11 01:21:19;;;;;;;19.25;8.48;;;15.70;99.90;;;;;;5043250;28;20084;-84
2023/10/11 01:23:46;;;;;;;16.05;7.80;;;15.70;99.90;;;;;;5035216;28;20516;-84
2023/10/11 01:26:12;;;;;;;20.23;8.52;;;15.80;99.90;;;;;;5021577;28;20121;-84
2023/10/11 01:28:41;;;;;;;22.15;8.82;;;15.70;99.90;;;;;;5030378;28;20096;-84
2023/10/11 01:31:09;;;;;;;20.13;8.88;;;15.70;99.90;;;;;;5032841;28;20038;-85
2023/10/11 01:33:41;;;;;;;20.25;8.77;;;15.80;99.90;;;;;;5032289;28;20034;-84
2023/10/11 01:36:12;;;;;;;19.00;8.93;;;15.70;99.90;;;;;;5032413;28;20487;-84
2023/10/11 01:38:48;;;;;;;24.20;9.40;;;15.70;99.90;;;;;;5020231;28;20569;-84
2023/10/11 01:41:20;;;;;;;22.08;9.30;;;15.70;99.90;;;;;;5032200;28;20404;-84
2023/10/11 01:43:49;;;;;;;18.92;9.02;;;15.70;99.90;;;;;;5031918;28;20049;-84
2023/10/11 01:46:19;;;;;;;24.42;9.13;;;15.70;99.90;;;;;;5035271;28;20124;-84
2023/10/11 01:48:46;;;;;;;20.42;8.93;;;15.70;99.90;;;;;;5048593;28;20092;-84
2023/10/11 01:51:21;;;;;;;21.42;9.88;;;15.70;99.90;;;;;;5032223;28;20104;-84
2023/10/11 01:53:47;;;;;;;21.90;9.32;;;15.60;99.90;;;;;;5032095;28;20132;-84
2023/10/11 01:56:15;;;;;;;22.77;9.25;;;15.70;99.90;;;;;;5032237;28;20201;-84
2023/10/11 01:58:42;;;;;;;28.17;9.73;;;15.70;99.90;;;;;;5031234;28;20049;-84
2023/10/11 02:01:26;;;;;;;23.38;9.25;;;15.70;99.90;;;;;;5035741;28;20042;-84
2023/10/11 02:03:59;;;;;;;22.85;9.63;;;15.70;99.90;;;;;;5047981;28;20042;-84
2023/10/11 02:06:31;;;;;;;21.50;9.68;;;15.70;99.90;;;;;;5048361;28;20488;-83
2023/10/11 02:09:02;;;;;;;22.65;9.73;;;15.60;99.90;;;;;;5030077;28;20038;-84
2023/10/11 02:11:29;;;;;;;22.25;10.48;;;15.70;99.90;;;;;;5019606;28;20124;-85
2023/10/11 02:14:00;;;;;;;24.15;10.18;;;15.70;99.90;;;;;;5029783;28;20125;-84
2023/10/11 02:16:32;;;;;;;21.30;10.02;;;15.60;99.90;;;;;;5012487;28;20142;-84
2023/10/11 02:18:59;;;;;;;28.35;9.43;;;15.70;99.90;;;;;;5032545;28;20452;-84
2023/10/11 02:21:27;;;;;;;25.20;9.30;;;15.60;99.90;;;;;;5036642;28;20099;-84
2023/10/11 02:23:56;;;;;;;24.67;9.98;;;15.70;99.90;;;;;;5030305;28;20083;-84
2023/10/11 02:26:31;;;;;;;19.50;9.25;;;15.60;99.90;;;;;;5031394;28;20115;-84
2023/10/11 02:29:01;;;;;;;22.63;10.27;;;15.60;99.90;;;;;;5031975;28;20080;-84
2023/10/11 02:31:33;;;;;;;24.98;9.88;;;15.50;99.90;;;;;;5047840;28;20073;-84
2023/10/11 02:34:15;;;;;;;24.08;10.13;;;15.60;99.90;;;;;;5031449;28;20041;-84
2023/10/11 02:36:43;;;;;;;19.67;9.35;;;15.60;99.90;;;;;;5031527;28;20034;-84
2023/10/11 02:39:20;;;;;;;25.85;10.27;;;15.40;99.90;;;;;;5031682;28;20042;-84
2023/10/11 02:41:50;;;;;;;26.27;9.93;;;15.50;99.90;;;;;;5047711;28;20050;-84
2023/10/11 02:44:16;;;;;;;24.20;9.55;;;15.50;99.90;;;;;;5031187;28;20128;-85
2023/10/11 02:46:44;;;;;;;19.83;9.93;;;15.50;99.90;;;;;;5030953;28;20117;-84
2023/10/11 02:49:20;;;;;;;21.77;9.85;;;15.50;99.90;;;;;;5030830;28;20053;-84
2023/10/11 02:51:55;;;;;;;;;;;15.60;99.90;;;;;;5040884;28;20061;-83
2023/10/11 02:54:24;;;;;;;26.63;10.68;;;15.50;99.90;;;;;;5046437;28;19921;-84
2023/10/11 02:56:52;;;;;;;24.75;11.35;;;15.40;99.90;;;;;;5029821;28;20046;-83
2023/10/11 02:59:22;;;;;;;24.10;10.10;;;15.50;99.90;;;;;;5030809;28;20037;-84
2023/10/11 03:01:59;;;;;;;24.88;10.93;;;15.50;99.90;;;;;;5030976;28;20042;-84
2023/10/11 03:04:38;;;;;;;28.90;10.43;;;15.50;99.90;;;;;;5046938;28;20492;-84
2023/10/11 03:07:33;;;;;;;22.23;10.32;;;15.50;99.90;;;;;;5040483;28;20049;-84
2023/10/11 03:10:00;;;;;;;26.88;11.10;;;15.50;99.90;;;;;;5016587;28;20558;-84
2023/10/11 03:12:30;;;;;;;29.80;10.95;;;15.50;99.90;;;;;;5042205;28;20186;-84
2023/10/11 03:14:57;;;;;;;27.55;11.20;;;15.50;99.90;;;;;;5046665;28;20041;-84
2023/10/11 03:17:23;;;;;;;29.58;10.60;;;15.50;99.90;;;;;;5030452;28;20484;-84
2023/10/11 03:19:52;;;;;;;24.77;11.30;;;15.50;99.90;;;;;;5035856;28;20042;-84
2023/10/11 03:22:21;;;;;;;24.58;11.30;;;15.50;99.90;;;;;;5025845;28;20428;-84
2023/10/11 03:25:12;;;;;;;23.65;11.10;;;15.50;99.90;;;;;;5023111;28;20415;-84
2023/10/11 03:27:48;;;;;;;32.08;11.38;;;15.50;99.90;;;;;;5036774;28;20442;-84
2023/10/11 03:30:21;;;;;;;24.48;10.43;;;15.50;99.90;;;;;;5045831;28;20047;-84
2023/10/11 03:32:49;;;;;;;27.88;10.50;;;15.50;99.90;;;;;;5030440;28;20488;-84
2023/10/11 03:35:18;;;;;;;26.23;10.90;;;15.50;99.90;;;;;;5030242;28;20042;-84
2023/10/11 03:37:58;;;;;;;19.80;9.98;;;15.50;99.90;;;;;;5036354;28;20034;-85
2023/10/11 03:40:34;;;;;;;22.77;10.07;;;15.50;99.90;;;;;;5041008;28;20053;-84
2023/10/11 03:43:04;;;;;;;24.40;10.07;;;15.50;99.90;;;;;;5046377;28;20041;-84
2023/10/11 03:45:34;;;;;;;26.70;10.85;;;15.50;99.90;;;;;;5030781;28;20050;-85
2023/10/11 03:48:01;;;;;;;25.35;10.77;;;15.60;99.90;;;;;;5030179;28;20096;-85
2023/10/11 03:50:34;;;;;;;22.58;9.85;;;15.60;99.90;;;;;;5046727;28;20054;-84
2023/10/11 03:53:10;;;;;;;24.67;10.25;;;15.60;99.90;;;;;;5029836;28;20042;-85
2023/10/11 03:55:45;;;;;;;23.88;10.43;;;15.60;99.90;;;;;;5017263;28;20531;-84
2023/10/11 04:01:24;;;;;;;24.98;9.77;;;15.60;99.90;;;;;;5027251;28;20512;-84
2023/10/11 04:03:50;;;;;;;25.08;10.88;;;15.60;99.90;;;;;;5029058;28;20041;-84
2023/10/11 04:06:19;;;;;;;21.88;10.20;;;15.70;99.90;;;;;;5039935;28;20865;-85
2023/10/11 04:08:49;;;;;;;26.30;10.05;;;15.70;99.90;;;;;;5037069;28;20038;-84
2023/10/11 04:11:22;;;;;;;27.38;10.27;;;15.70;99.90;;;;;;5034208;28;20045;-84
2023/10/11 04:13:50;;;;;;;21.95;9.85;;;15.70;99.90;;;;;;5055593;28;20531;-84
2023/10/11 04:16:17;;;;;;;29.92;10.93;;;15.70;99.90;;;;;;5047912;28;20052;-84
2023/10/11 04:18:44;;;;;;;30.27;9.80;;;15.70;99.90;;;;;;5035704;28;20037;-84
2023/10/11 04:23:39;;;;;;;26.98;9.45;;;15.70;99.90;;;;;;5049913;28;20053;-85
2023/10/11 04:26:23;;;;;;;25.50;10.55;;;15.70;99.90;;;;;;5033752;28;20045;-84
2023/10/11 04:28:52;;;;;;;21.65;9.18;;;15.70;99.90;;;;;;5028208;28;20034;-84
2023/10/11 04:31:30;;;;;;;25.40;9.88;;;15.60;99.90;;;;;;5033614;28;20481;-84
2023/10/11 04:33:59;;;;;;;25.25;9.43;;;15.70;99.90;;;;;;5038562;28;20037;-85
2023/10/11 04:36:28;;;;;;;26.15;10.52;;;15.60;99.90;;;;;;5033466;28;20045;-85
2023/10/11 04:39:12;;;;;;;28.60;10.30;;;15.60;99.90;;;;;;5049896;28;20084;-84
2023/10/11 04:41:48;;;;;;;28.98;10.20;;;15.70;99.90;;;;;;5034311;28;20038;-84
2023/10/11 04:44:17;;;;;;;21.15;9.18;;;15.60;99.90;;;;;;5036897;28;20038;-84
2023/10/11 04:46:55;;;;;;;23.35;9.65;;;15.60;99.90;;;;;;5045446;28;20411;-84
2023/10/11 04:49:23;;;;;;;27.13;9.38;;;15.60;99.90;;;;;;5032808;28;20115;-84
2023/10/11 04:51:51;;;;;;;23.83;9.90;;;15.60;99.90;;;;;;5030964;28;20046;-84
2023/10/11 04:54:18;;;;;;;26.88;9.73;;;15.60;99.90;;;;;;5046059;28;20166;-84
2023/10/11 04:59:37;;;;;;;23.50;10.07;;;15.30;99.90;;;;;;5049297;28;20898;-84
2023/10/11 05:02:22;;;;;;;27.52;10.23;;;15.50;99.90;;;;;;5048635;28;20111;-84
2023/10/11 05:04:51;;;;;;;;;;;15.50;99.90;;;;;;5033952;28;20050;-84
2023/10/11 05:07:19;;;;;;;26.63;9.73;;;15.50;99.90;;;;;;5032501;28;19921;-84
2023/10/11 05:09:59;;;;;;;27.63;9.02;;;15.40;99.90;;;;;;5045514;28;20411;-84
2023/10/11 05:12:26;;;;;;;25.17;8.88;;;15.50;99.90;;;;;;5032736;28;20034;-84
2023/10/11 05:22:49;;;;;;;26.35;10.10;;;15.40;99.90;;;;;;5038017;28;20058;-85
2023/10/11 05:28:07;;;;;;;23.95;9.95;;;15.40;99.90;;;;;;5048108;28;20575;-84
2023/10/11 05:30:35;;;;;;;26.20;9.32;;;15.40;99.90;;;;;;5028753;28;20037;-84
2023/10/11 05:52:15;;;;;;;21.02;9.52;;;15.30;99.90;;;;;;5048058;28;20120;-84
2023/10/11 05:54:42;;;;;;;25.30;9.85;;;15.40;99.90;;;;;;5032057;28;20046;-84
2023/10/11 05:57:11;;;;;;;25.27;10.07;;;15.30;99.90;;;;;;5028175;28;20038;-84
2023/10/11 05:59:37;;;;;;;26.20;9.70;;;15.30;99.90;;;;;;5012515;28;20046;-85
2023/10/11 06:02:13;;;;;;;24.58;9.43;;;15.30;99.90;;;;;;5028491;28;20039;-86
2023/10/11 06:04:40;;;;;;;;;;;15.30;99.90;;;;;;5015100;28;20129;-86
2023/10/11 06:07:08;;;;;;;29.30;10.45;;;15.40;99.90;;;;;;5019007;28;20422;-86
2023/10/11 06:09:43;;;;;;;25.33;9.65;;;15.30;99.90;;;;;;5030154;28;20049;-85
2023/10/11 06:12:23;;;;;;;28.05;10.05;;;15.30;99.90;;;;;;5022011;28;20041;-86
2023/10/11 06:14:54;;;;;;;28.60;9.82;;;15.30;99.90;;;;;;5039608;28;20033;-86
2023/10/11 06:42:31;;;;;;;27.35;10.20;;;15.50;99.90;;;;;;5034759;28;20308;-82
2023/10/11 06:45:50;;;;;;;28.17;11.18;;;15.60;99.90;;;;;;5030168;28;20081;-84
2023/10/11 06:48:18;;;;;;;25.55;11.05;;;15.60;99.90;;;;;;5025214;28;20038;-84
2023/10/11 06:50:46;;;;;;;25.08;10.02;;;15.70;99.90;;;;;;5023995;28;20050;-83
2023/10/11 07:04:18;;;;;;;34.00;10.48;;;15.90;99.90;;;;;;5037749;28;20083;-83
2023/10/11 07:25:38;;;;;;;26.63;9.93;;;16.00;99.90;;;;;;5046772;28;20065;-85
2023/10/11 07:31:50;;;;;;;27.35;10.93;;;16.10;99.90;;;;;;5036517;28;20504;-84
2023/10/11 07:41:48;;;;;;;28.50;10.90;;;16.30;99.90;;;;;;5046003;28;20030;-86
2023/10/11 07:48:09;;;;;;;30.50;10.57;;;16.30;99.90;;;;;;5046888;28;20033;-83
2023/10/11 07:54:20;;;;;;;28.13;10.68;;;16.40;99.90;;;;;;4994097;28;20050;-85
2023/10/11 08:00:30;;;;;;;31.38;10.93;;;16.40;99.90;;;;;;5004915;28;20515;-85
2023/10/11 08:07:08;;;;;;;25.33;10.75;;;16.40;99.90;;;;;;4997233;28;20033;-84
2023/10/11 08:13:26;;;;;;;26.77;10.95;;;16.40;99.90;;;;;;5007972;28;20058;-83
2023/10/11 08:19:34;;;;;;;29.27;12.13;;;16.50;99.90;;;;;;5009188;28;20035;-83
2023/10/11 08:25:51;;;;;;;33.70;12.43;;;16.50;99.90;;;;;;5001843;28;20544;-83
2023/10/11 08:35:54;;;;;;;32.03;12.68;;;16.50;99.90;;;;;;5005132;28;20033;-84
2023/10/11 08:42:11;;;;;;;36.50;14.63;;;16.40;99.90;;;;;;5002485;28;20088;-84
2023/10/11 09:00:29;;;;;;;35.05;15.40;;;16.20;99.90;;;;;;5048283;28;20128;-86
2023/10/11 09:06:43;;;;;;;31.90;14.45;;;16.30;99.90;;;;;;5050223;28;20037;-86
2023/10/11 09:17:25;;;;;;;36.42;14.52;;;16.30;99.90;;;;;;5048350;28;20452;-86
2023/10/11 09:48:47;;;;;;;26.75;12.00;;;16.50;99.90;;;;;;4980837;29;20034;-87
2023/10/11 10:49:51;;;;;;;16.27;5.30;;;17.70;99.90;;;;;;5064469;28;20047;-86
2023/10/11 10:56:26;;;;;;;12.00;5.32;;;17.70;99.90;;;;;;5059550;28;20084;-85
2023/10/11 11:02:36;;;;;;;13.65;5.00;;;17.90;99.90;;;;;;5057062;28;20113;-86
2023/10/11 11:08:45;;;;;;;10.63;4.60;;;18.30;99.90;;;;;;5057306;28;20028;-86
2023/10/11 11:14:55;;;;;;;10.75;4.18;;;18.50;99.90;;;;;;5068065;28;20064;-86
2023/10/11 11:21:21;;;;;;;10.55;4.28;;;18.80;99.90;;;;;;5067699;28;20041;-85
2023/10/11 11:31:30;;;;;;;8.15;3.17;;;18.80;99.90;;;;;;5067628;28;20037;-86
2023/10/11 11:38:01;;;;;;;12.57;3.42;;;18.80;99.90;;;;;;5067157;28;20024;-86
2023/10/11 11:44:19;;;;;;;9.80;3.78;;;18.90;99.90;;;;;;5055504;28;20439;-85
2023/10/11 11:46:53;;;;;;;9.38;3.35;;;19.00;99.90;;;;;;5028347;28;20891;-85
2023/10/11 11:53:18;;;;;;;6.97;3.30;;;18.90;99.90;;;;;;5060479;28;20080;-85
2023/10/11 12:16:58;;;;;;;6.28;2.95;;;18.70;99.90;;;;;;4964794;29;20590;-85
2023/10/11 12:29:54;;;;;;;11.65;3.20;;;19.00;99.90;;;;;;4966497;29;20090;-88
2023/10/11 12:46:40;;;;;;;7.07;2.88;;;19.20;99.90;;;;;;4956951;29;20043;-86
2023/10/11 13:03:37;;;;;;;7.28;2.55;;;19.00;99.90;;;;;;4913568;29;20108;-85
2023/10/11 13:11:13;;;;;;;8.90;2.47;;;19.00;99.90;;;;;;4894589;29;20066;-86
2023/10/11 13:21:16;;;;;;;8.77;2.50;;;19.50;99.90;;;;;;4944694;29;20407;-88
2023/10/11 13:27:30;;;;;;;8.73;2.67;;;19.70;99.90;;;;;;5013027;28;20097;-90
2023/10/11 13:41:02;;;;;;;6.40;2.30;;;19.80;99.90;;;;;;5064859;28;20057;-87
2023/10/11 13:58:45;;;;;;;7.75;2.75;;;18.90;99.90;;;;;;5064349;28;20036;-87
2023/10/11 14:05:09;;;;;;;6.00;2.60;;;18.90;99.90;;;;;;5066090;28;20408;-86
2023/10/11 14:15:24;;;;;;;8.23;2.88;;;19.00;99.90;;;;;;5018782;28;20061;-87
2023/10/11 14:21:36;;;;;;;9.55;2.95;;;19.00;99.90;;;;;;5026859;28;20060;-88
2023/10/11 14:31:42;;;;;;;9.63;2.47;;;18.90;99.90;;;;;;5014245;28;20147;-88
2023/10/11 14:37:49;;;;;;;8.23;3.25;;;18.90;99.90;;;;;;5021733;28;20057;-87
2023/10/11 14:43:59;;;;;;;11.43;3.03;;;19.10;99.90;;;;;;5064607;28;20147;-87
2023/10/11 14:54:39;;;;;;;6.68;2.60;;;19.20;99.90;;;;;;5066657;28;20087;-89
2023/10/11 15:00:50;;;;;;;8.80;2.53;;;19.10;99.90;;;;;;5068005;28;20025;-88
2023/10/11 15:10:48;;;;;;;8.18;2.45;;;18.90;99.90;;;;;;5060813;28;20082;-87
2023/10/11 15:17:01;;;;;;;8.13;2.85;;;18.80;99.90;;;;;;5066466;28;20039;-88
2023/10/11 15:23:11;;;;;;;8.13;2.80;;;18.80;99.90;;;;;;5060705;28;20087;-82
2023/10/11 15:29:34;;;;;;;6.82;2.58;;;18.70;99.90;;;;;;5067913;28;20037;-84
2023/10/11 15:36:36;;;;;;;10.00;3.40;;;18.50;99.90;;;;;;4986747;29;20520;-87
2023/10/11 15:42:46;;;;;;;12.38;3.17;;;18.40;99.90;;;;;;4987220;28;20046;-87
2023/10/11 15:48:55;;;;;;;10.27;2.85;;;18.50;99.90;;;;;;4986218;28;20070;-86
2023/10/11 16:06:26;;;;;;;13.60;3.30;;;18.40;99.90;;;;;;4892803;29;20037;-89
2023/10/11 16:12:34;;;;;;;8.68;2.92;;;18.20;99.90;;;;;;4946619;29;20582;-87
2023/10/11 16:18:47;;;;;;;10.88;3.30;;;18.00;99.90;;;;;;4963774;29;20118;-86
2023/10/11 16:25:07;;;;;;;8.73;3.10;;;17.90;99.90;;;;;;4961621;29;20114;-86
2023/10/11 16:31:18;;;;;;;8.27;2.97;;;17.90;99.90;;;;;;4960020;29;20128;-86
2023/10/11 16:37:26;;;;;;;11.77;3.65;;;17.80;99.90;;;;;;5057436;28;20094;-86
2023/10/11 17:05:38;;;;;;;14.60;4.45;;;17.60;99.90;;;;;;5050508;28;20508;-87
2023/10/11 17:34:22;;;;;;;13.90;4.70;;;17.30;99.90;;;;;;5070687;28;20103;-88
2023/10/11 17:40:32;;;;;;;16.95;5.70;;;17.30;99.90;;;;;;5059302;28;20044;-87
2023/10/11 17:46:44;;;;;;;15.77;5.97;;;17.20;99.90;;;;;;5049916;28;20033;-87
2023/10/11 17:49:11;;;;;;;15.52;5.57;;;17.20;99.90;;;;;;5020976;28;20112;-87
2023/10/11 17:51:37;;;;;;;13.88;5.53;;;17.10;99.90;;;;;;5036610;28;20041;-87
2023/10/11 17:54:07;;;;;;;13.43;5.18;;;17.10;99.90;;;;;;5035912;28;20072;-88
2023/10/11 17:56:37;;;;;;;15.98;5.88;;;17.10;99.90;;;;;;5036170;28;20084;-87
2023/10/11 17:59:03;;;;;;;14.98;5.72;;;17.10;99.90;;;;;;5035882;28;20071;-87
2023/10/11 18:01:31;;;;;;;19.25;5.15;;;17.00;99.90;;;;;;5049571;28;20442;-87
2023/10/11 18:04:05;;;;;;;15.02;5.05;;;17.10;99.90;;;;;;5052672;28;20047;-87
2023/10/11 18:06:35;;;;;;;11.88;4.82;;;17.00;99.90;;;;;;5035594;28;20507;-87
2023/10/11 18:09:02;;;;;;;15.82;5.25;;;17.00;99.90;;;;;;5035554;28;20045;-87
2023/10/11 18:11:28;;;;;;;17.75;5.85;;;17.00;99.90;;;;;;5036067;28;20049;-87
2023/10/11 18:13:58;;;;;;;13.52;5.70;;;17.00;99.90;;;;;;5035643;28;20033;-86
2023/10/11 18:16:29;;;;;;;14.10;6.72;;;16.90;99.90;;;;;;5036055;28;20040;-87
2023/10/11 18:18:59;;;;;;;12.10;6.30;;;17.00;99.90;;;;;;5035952;28;20041;-87
2023/10/11 18:21:28;;;;;;;10.23;5.68;;;17.00;99.90;;;;;;5036041;28;20044;-87
2023/10/11 18:23:55;;;;;;;14.63;6.57;;;16.90;99.90;;;;;;5035503;28;20041;-88
2023/10/11 18:26:25;;;;;;;15.98;6.57;;;16.90;99.90;;;;;;5051914;28;20045;-88
2023/10/11 18:28:51;;;;;;;21.35;7.57;;;16.90;99.90;;;;;;5029729;28;20046;-88
2023/10/11 18:31:24;;;;;;;18.10;7.85;;;16.90;99.90;;;;;;5029955;28;20042;-88
2023/10/11 18:33:56;;;;;;;16.50;7.38;;;16.90;99.90;;;;;;5024216;28;20593;-88
2023/10/11 18:36:23;;;;;;;19.58;8.68;;;16.90;99.90;;;;;;5035585;28;20049;-88
2023/10/11 18:38:49;;;;;;;27.15;8.80;;;16.90;99.90;;;;;;5035637;28;20124;-88
2023/10/11 18:41:19;;;;;;;22.80;9.63;;;17.00;99.90;;;;;;5049226;28;20168;-89
2023/10/11 18:43:45;;;;;;;23.83;9.75;;;16.90;99.90;;;;;;5026145;28;20053;-89
2023/10/11 18:46:15;;;;;;;21.15;9.55;;;16.90;99.90;;;;;;5035854;28;20100;-89
2023/10/11 18:48:45;;;;;;;24.80;10.40;;;16.90;99.90;;;;;;5035333;28;20057;-89
2023/10/11 18:51:15;;;;;;;23.88;10.45;;;16.70;99.90;;;;;;5037985;28;20045;-89
2023/10/11 18:53:45;;;;;;;24.73;10.02;;;16.90;99.90;;;;;;5035246;28;20903;-89
2023/10/11 18:56:13;;;;;;;25.00;9.10;;;16.90;99.90;;;;;;5035710;28;20060;-88
2023/10/11 18:58:47;;;;;;;23.10;8.25;;;16.80;99.90;;;;;;5052392;28;20507;-89
2023/10/11 19:01:17;;;;;;;16.20;7.63;;;16.70;99.90;;;;;;5035721;28;20435;-88
2023/10/11 19:03:44;;;;;;;17.17;6.53;;;16.60;99.90;;;;;;5023292;28;20499;-88
2023/10/11 19:06:12;;;;;;;18.90;7.75;;;16.60;99.90;;;;;;5035600;28;20069;-90
2023/10/11 19:08:39;;;;;;;20.73;7.55;;;16.50;99.90;;;;;;5035517;28;20045;-89
2023/10/11 19:11:14;;;;;;;21.10;7.60;;;16.60;99.90;;;;;;5035700;28;20487;-88
2023/10/11 19:13:43;;;;;;;17.55;7.35;;;16.50;99.90;;;;;;5035027;28;20511;-89
2023/10/11 19:16:15;;;;;;;14.02;7.18;;;16.50;99.90;;;;;;5035319;28;20073;-89
2023/10/11 19:18:41;;;;;;;20.83;8.13;;;16.50;99.90;;;;;;5022448;28;20042;-89
2023/10/11 19:21:10;;;;;;;20.35;8.68;;;16.50;99.90;;;;;;5035335;28;20033;-90
2023/10/11 19:23:37;;;;;;;17.88;8.10;;;16.50;99.90;;;;;;5034674;28;20049;-89
2023/10/11 19:26:05;;;;;;;23.08;9.30;;;16.40;99.90;;;;;;5035062;28;20045;-90
2023/10/11 19:28:31;;;;;;;24.42;9.05;;;16.50;99.90;;;;;;5035486;28;20471;-90
2023/10/11 19:30:58;;;;;;;24.15;8.20;;;16.40;99.90;;;;;;5034885;28;20127;-89
2023/10/11 19:33:26;;;;;;;19.00;8.55;;;16.50;99.90;;;;;;5035283;28;20468;-88
2023/10/11 19:36:09;;;;;;;18.92;8.05;;;16.40;99.90;;;;;;5034828;28;20041;-89
2023/10/11 19:38:37;;;;;;;22.58;7.88;;;16.40;99.90;;;;;;5034552;28;20037;-89
2023/10/11 19:41:06;;;;;;;20.48;8.10;;;16.30;99.90;;;;;;5034552;28;20120;-88
2023/10/11 19:43:36;;;;;;;19.13;7.32;;;16.30;99.90;;;;;;5027350;28;20042;-88
2023/10/11 19:46:07;;;;;;;23.63;7.22;;;16.30;99.90;;;;;;5029302;28;20041;-87
2023/10/11 19:48:35;;;;;;;23.33;7.13;;;16.30;99.90;;;;;;5035174;28;20049;-89
2023/10/11 19:51:02;;;;;;;20.35;7.47;;;16.20;99.90;;;;;;5034388;28;20052;-89
2023/10/11 19:53:29;;;;;;;20.58;7.13;;;16.20;99.90;;;;;;5050782;28;20512;-88
2023/10/11 19:55:56;;;;;;;23.42;7.45;;;16.20;99.90;;;;;;5021811;28;20488;-89
2023/10/11 19:58:24;;;;;;;25.17;8.20;;;16.10;99.90;;;;;;5034203;28;20037;-88
2023/10/11 20:00:52;;;;;;;18.48;8.15;;;16.20;99.90;;;;;;5034380;28;20033;-88
2023/10/11 20:03:21;;;;;;;27.42;8.15;;;16.00;99.90;;;;;;5033544;28;20045;-83
2023/10/11 20:05:48;;;;;;;30.88;8.65;;;16.20;99.90;;;;;;5057922;28;20164;-83
2023/10/11 20:08:15;;;;;;;22.10;7.60;;;16.20;99.90;;;;;;5032915;28;20499;-82
2023/10/11 20:10:44;;;;;;;22.60;8.90;;;16.10;99.90;;;;;;5031944;28;20423;-83
2023/10/11 20:13:11;;;;;;;25.02;9.48;;;16.10;99.90;;;;;;5032662;28;20041;-84
2023/10/11 20:15:38;;;;;;;27.58;9.18;;;16.20;99.90;;;;;;5033244;28;20175;-83
2023/10/11 20:18:05;;;;;;;26.80;10.75;;;16.20;99.90;;;;;;5022666;28;20037;-84
2023/10/11 20:20:36;;;;;;;27.95;10.27;;;16.20;99.90;;;;;;5032983;28;20072;-82
2023/10/11 20:23:04;;;;;;;27.30;10.68;;;16.20;99.90;;;;;;5032907;28;20128;-83
2023/10/11 20:25:31;;;;;;;26.08;10.82;;;16.20;99.90;;;;;;5032663;28;20049;-84
2023/10/11 20:27:59;;;;;;;27.33;11.40;;;16.20;99.90;;;;;;5032903;28;20042;-84
2023/10/11 20:30:26;;;;;;;26.88;10.27;;;16.20;99.90;;;;;;5033210;28;20474;-84
2023/10/11 20:32:59;;;;;;;27.70;11.13;;;16.20;99.90;;;;;;5031902;28;20125;-85
2023/10/11 20:35:26;;;;;;;21.92;10.70;;;16.20;99.90;;;;;;5020748;28;20120;-85
2023/10/11 20:38:08;;;;;;;25.80;10.68;;;16.30;99.90;;;;;;5033066;28;20121;-86
2023/10/11 20:40:40;;;;;;;24.00;11.07;;;16.30;99.90;;;;;;5049813;28;20492;-87
2023/10/11 20:43:07;;;;;;;27.17;10.35;;;16.30;99.90;;;;;;5033236;28;20042;-85
2023/10/11 20:45:34;;;;;;;28.38;11.30;;;16.30;99.90;;;;;;5032924;28;20048;-85
2023/10/11 20:48:01;;;;;;;21.10;11.25;;;16.30;99.90;;;;;;5048293;28;20053;-85
2023/10/11 20:50:31;;;;;;;29.10;11.98;;;16.30;99.90;;;;;;5032863;28;20052;-85
2023/10/11 20:53:00;;;;;;;26.80;12.23;;;16.40;99.90;;;;;;5036154;28;20041;-85
2023/10/11 20:55:29;;;;;;;27.92;12.32;;;16.40;99.90;;;;;;5036177;28;20048;-85
2023/10/11 20:58:18;;;;;;;26.23;11.70;;;16.40;99.90;;;;;;5050618;28;20046;-85
2023/10/11 21:00:48;;;;;;;22.50;12.75;;;16.50;99.90;;;;;;5036322;28;20039;-85
2023/10/11 21:03:16;;;;;;;27.40;13.38;;;16.50;99.90;;;;;;5035788;28;20072;-85
2023/10/11 21:05:48;;;;;;;24.42;12.48;;;16.40;99.90;;;;;;5036191;28;20072;-85
2023/10/11 21:08:16;;;;;;;27.08;12.90;;;16.50;99.90;;;;;;5036168;28;20053;-85
2023/10/11 21:10:45;;;;;;;28.50;13.52;;;16.50;99.90;;;;;;5035646;28;20045;-85
2023/10/11 21:13:13;;;;;;;9.90;3.88;;;16.50;99.90;;;;;;5035711;28;20463;-84
2023/10/11 21:15:41;;;;;;;9.95;2.33;;;16.20;99.90;;;;;;5035453;28;20069;-84
2023/10/11 21:18:08;;;;;;;9.27;2.20;;;15.80;99.90;;;;;;5051494;28;20120;-85
2023/10/11 21:20:42;;;;;;;7.20;2.22;;;15.60;99.90;;;;;;5035732;28;20568;-85
2023/10/11 21:23:15;;;;;;;7.00;1.90;;;15.40;99.90;;;;;;5052487;28;20042;-85
2023/10/11 21:25:46;;;;;;;5.10;1.63;;;15.20;99.90;;;;;;5035454;28;20519;-85
2023/10/11 21:28:13;;;;;;;9.45;1.98;;;15.20;99.90;;;;;;5036355;28;20152;-85
2023/10/11 21:30:39;;;;;;;8.90;1.70;;;15.20;99.90;;;;;;5035654;28;20049;-85
2023/10/11 21:33:11;;;;;;;6.68;1.88;;;15.00;99.90;;;;;;5036358;28;20076;-85
2023/10/11 21:35:38;;;;;;;5.05;1.77;;;14.90;99.90;;;;;;5036116;28;20088;-85
2023/10/11 21:38:05;;;;;;;6.30;1.80;;;15.00;99.90;;;;;;5036220;28;20068;-85
2023/10/11 21:40:36;;;;;;;8.05;1.85;;;15.00;99.90;;;;;;5036379;28;20041;-85
2023/10/11 21:43:03;;;;;;;7.10;2.00;;;15.00;99.90;;;;;;5035320;28;20097;-86
2023/10/11 21:45:31;;;;;;;5.50;2.00;;;15.00;99.90;;;;;;5035552;28;20041;-85
2023/10/11 21:48:00;;;;;;;7.63;1.83;;;14.90;99.90;;;;;;5035420;28;20041;-85
2023/10/11 21:50:30;;;;;;;6.20;1.63;;;14.90;99.90;;;;;;5042831;28;20046;-85
2023/10/11 21:52:59;;;;;;;8.38;1.98;;;14.90;99.90;;;;;;5016234;28;20034;-85
2023/10/11 21:55:26;;;;;;;6.75;1.42;;;14.90;99.90;;;;;;5046719;28;20116;-85
2023/10/11 21:57:57;;;;;;;4.25;1.70;;;14.90;99.90;;;;;;5035601;28;20475;-85
2023/10/11 22:03:09;;;;;;;8.20;1.65;;;14.90;99.90;;;;;;5051350;28;20045;-86
2023/10/11 22:05:36;;;;;;;3.08;1.00;;;14.80;99.90;;;;;;5032432;28;20507;-85
2023/10/11 22:08:05;;;;;;;2.88;0.98;;;14.90;99.90;;;;;;5047880;28;20045;-85
2023/10/11 22:10:32;;;;;;;7.68;1.00;;;14.80;99.90;;;;;;5035645;28;20057;-85
2023/10/11 22:12:58;;;;;;;3.75;0.90;;;14.80;99.90;;;;;;5047925;28;20651;-85
2023/10/11 22:15:25;;;;;;;4.57;0.95;;;14.80;99.90;;;;;;5025170;28;20072;-85
2023/10/11 22:17:55;;;;;;;1.42;0.55;;;14.80;99.90;;;;;;5031848;28;20042;-85